Brasstown, NC

8:49 AM EDT on August 21, 2014 (GMT -0400)
Elevation 1780 | Change Station
CLOSE
Current Station
Personal Weather Station
Location: Brasstown, NC
Elevation: 1780 ft
Nearby Weather Stations
Active Advisory: Special Statement

Elev 1780 ft 35.02 °N, 83.97 °W | Updated 13 minutes ago

Fog
Fog
63.6 °F
Feels Like 63.6 °F
N
0.0
Wind Variable Wind from West
Gusts 1.0 mph

Today
High -- | Low -- °F
--% Chance of Precip.
Yesterday
High -- | Low -- °F
Precip. -- in
7:00 AM 8:16 PM
Waning Crescent, 14% visible
Pressure 30.22 in
Visibility 0.2 miles
Clouds Overcast 300 ft
Dew Point 63 °F
Humidity 99%
Rainfall 0.00 in
Snow Depth Not available.
UV 0.0 out of 12
Pollen 9.20 out of 12
Air Quality Not available.
Flu Activity Not available.
METAR KRHP 211235Z AUTO 00000KT 1/4SM FG OVC003 16/16 A3022 RMK AO2 T01640164

More Conditions Fewer Conditions

Pressure 30.22 in
Visibility 0.2 miles
Clouds Overcast 300 ft
Dew Point 63 °F
Humidity 99%
Rainfall 0.00 in
Snow Depth Not available.
UV 0.0 out of 12
Pollen 9.20 out of 12
Air Quality Not available.
Flu Activity Not available.
METAR KRHP 211235Z AUTO 00000KT 1/4SM FG OVC003 16/16 A3022 RMK AO2 T01640164

More Conditions Fewer Conditions

10-Day Weather Forecast

Almanac

Astronomy

Aug. 21, 2014 Rise Set
Actual Time 7:00 AM EDT 8:16 PM EDT
Civil Twilight 6:33 AM EDT 8:43 PM EDT
Nautical Twilight 6:02 AM EDT 9:14 PM EDT
Astronomical Twilight 5:29 AM EDT 9:47 PM EDT
Moon 3:33 AM EDT 5:41 PM EDT
Length of Visible Light 14h 09m
Length of Day
13h 16m
Tomorrow will be 2m 0s shorter.
Waning Crescent, 14% of the Moon is Illuminated
Today
Waning Crescent
Aug 25
New
Sep 2
First Quarter
Sep 8
Full
Sep 15
Last Quarter

Today's Extremes

State Highs State Lows

Community

WunderPhotos

Upload Photos

1,745,895 photos uploaded!

WunderBlogs® & News

By Dr. Jeff Masters
Director of Meteorology, Weather Underground
By Kari Strenfel
Meteorologist, Weather Underground
By Christopher C. Burt
Weather Historian, Weather Underground
August 21, 2014
August 21, 2014
August 21, 2014

Nearby

Snow Depth

Station Depth Elevation
No new snow has been reported.

Earthquake Activity

City Distance Mag. Time & Date
No recent earthquake activity has been reported nearby.
Minimum magnitude displayed is 2.5.

Coastal Water Temperatures

Place Temperature
No Stations Reporting

Nearby Weather Stations